sensor_id;sensor_type;location;lat;lon;timestamp;temperature;humidity
33328;DHT22;19692;52.998;9.116;2023-02-28T00:01:19;2.10;99.90
33328;DHT22;19692;52.998;9.116;2023-02-28T00:03:45;2.10;99.90
33328;DHT22;19692;52.998;9.116;2023-02-28T00:06:10;2.00;99.90
33328;DHT22;19692;52.998;9.116;2023-02-28T00:08:37;2.00;99.90
33328;DHT22;19692;52.998;9.116;2023-02-28T00:11:09;1.90;99.90
33328;DHT22;19692;52.998;9.116;2023-02-28T00:13:37;2.00;99.90
33328;DHT22;19692;52.998;9.116;2023-02-28T00:16:08;2.00;99.90
33328;DHT22;19692;52.998;9.116;2023-02-28T00:18:35;2.00;99.90
33328;DHT22;19692;52.998;9.116;2023-02-28T00:21:01;1.90;99.90
33328;DHT22;19692;52.998;9.116;2023-02-28T00:23:27;1.80;99.90
33328;DHT22;19692;52.998;9.116;2023-02-28T00:25:53;1.70;99.90
33328;DHT22;19692;52.998;9.116;2023-02-28T00:28:19;1.70;99.90
33328;DHT22;19692;52.998;9.116;2023-02-28T00:30:45;1.60;99.90
33328;DHT22;19692;52.998;9.116;2023-02-28T00:33:11;1.60;99.90
33328;DHT22;19692;52.998;9.116;2023-02-28T00:35:37;1.50;99.90
33328;DHT22;19692;52.998;9.116;2023-02-28T00:38:03;1.40;99.90
33328;DHT22;19692;52.998;9.116;2023-02-28T00:40:29;1.30;99.90
33328;DHT22;19692;52.998;9.116;2023-02-28T00:42:55;1.30;99.90
33328;DHT22;19692;52.998;9.116;2023-02-28T00:45:20;1.10;99.90
33328;DHT22;19692;52.998;9.116;2023-02-28T00:47:46;1.10;99.90
33328;DHT22;19692;52.998;9.116;2023-02-28T00:50:18;1.10;99.90
33328;DHT22;19692;52.998;9.116;2023-02-28T00:52:44;1.00;99.90
33328;DHT22;19692;52.998;9.116;2023-02-28T00:55:10;1.00;99.90
33328;DHT22;19692;52.998;9.116;2023-02-28T00:57:36;0.90;99.90
33328;DHT22;19692;52.998;9.116;2023-02-28T01:00:03;0.80;99.90
33328;DHT22;19692;52.998;9.116;2023-02-28T01:02:30;0.70;99.90
33328;DHT22;19692;52.998;9.116;2023-02-28T01:04:55;0.60;99.90
33328;DHT22;19692;52.998;9.116;2023-02-28T01:07:22;0.50;99.90
33328;DHT22;19692;52.998;9.116;2023-02-28T01:09:48;0.50;99.90
33328;DHT22;19692;52.998;9.116;2023-02-28T01:12:14;0.40;99.90
33328;DHT22;19692;52.998;9.116;2023-02-28T01:14:40;0.60;99.90
33328;DHT22;19692;52.998;9.116;2023-02-28T01:17:06;0.50;99.90
33328;DHT22;19692;52.998;9.116;2023-02-28T01:19:32;0.30;99.90
33328;DHT22;19692;52.998;9.116;2023-02-28T01:22:01;0.30;99.90
33328;DHT22;19692;52.998;9.116;2023-02-28T01:24:30;0.30;99.90
33328;DHT22;19692;52.998;9.116;2023-02-28T01:26:56;0.30;99.90
33328;DHT22;19692;52.998;9.116;2023-02-28T01:29:22;0.40;99.90
33328;DHT22;19692;52.998;9.116;2023-02-28T01:31:48;0.40;99.90
33328;DHT22;19692;52.998;9.116;2023-02-28T01:34:13;0.30;99.90
33328;DHT22;19692;52.998;9.116;2023-02-28T01:36:39;0.30;99.90
33328;DHT22;19692;52.998;9.116;2023-02-28T01:39:05;0.30;99.90
33328;DHT22;19692;52.998;9.116;2023-02-28T01:41:33;0.20;99.90
33328;DHT22;19692;52.998;9.116;2023-02-28T01:44:53;0.10;99.90
33328;DHT22;19692;52.998;9.116;2023-02-28T01:47:15;0.10;99.90
33328;DHT22;19692;52.998;9.116;2023-02-28T01:49:41;-0.10;99.90
33328;DHT22;19692;52.998;9.116;2023-02-28T01:52:07;-0.10;99.90
33328;DHT22;19692;52.998;9.116;2023-02-28T01:54:40;-0.20;99.90
33328;DHT22;19692;52.998;9.116;2023-02-28T01:57:14;-0.20;99.90
33328;DHT22;19692;52.998;9.116;2023-02-28T01:59:49;-0.20;99.90
33328;DHT22;19692;52.998;9.116;2023-02-28T02:02:19;-0.20;99.90
33328;DHT22;19692;52.998;9.116;2023-02-28T02:05:11;-0.20;99.90
33328;DHT22;19692;52.998;9.116;2023-02-28T02:07:44;-0.10;99.90
33328;DHT22;19692;52.998;9.116;2023-02-28T02:10:17;-0.20;99.90
33328;DHT22;19692;52.998;9.116;2023-02-28T02:15:42;-0.30;99.90
33328;DHT22;19692;52.998;9.116;2023-02-28T02:21:50;-0.50;99.90
33328;DHT22;19692;52.998;9.116;2023-02-28T02:24:46;-0.60;99.90
33328;DHT22;19692;52.998;9.116;2023-02-28T02:27:26;-0.70;99.90
33328;DHT22;19692;52.998;9.116;2023-02-28T02:30:43;-0.70;99.90
33328;DHT22;19692;52.998;9.116;2023-02-28T02:33:34;-0.70;99.90
33328;DHT22;19692;52.998;9.116;2023-02-28T02:36:45;-0.60;99.90
33328;DHT22;19692;52.998;9.116;2023-02-28T02:42:40;-0.60;99.90
33328;DHT22;19692;52.998;9.116;2023-02-28T02:45:16;-0.60;99.90
33328;DHT22;19692;52.998;9.116;2023-02-28T02:47:45;-0.60;99.90
33328;DHT22;19692;52.998;9.116;2023-02-28T02:50:19;-0.60;99.90
33328;DHT22;19692;52.998;9.116;2023-02-28T02:52:52;-0.60;99.90
33328;DHT22;19692;52.998;9.116;2023-02-28T02:55:22;-0.70;99.90
33328;DHT22;19692;52.998;9.116;2023-02-28T02:57:58;-0.60;99.90
33328;DHT22;19692;52.998;9.116;2023-02-28T03:00:31;-0.70;99.90
33328;DHT22;19692;52.998;9.116;2023-02-28T03:03:01;-0.80;99.90
33328;DHT22;19692;52.998;9.116;2023-02-28T03:05:42;-0.80;99.90
33328;DHT22;19692;52.998;9.116;2023-02-28T03:08:12;-0.80;99.90
33328;DHT22;19692;52.998;9.116;2023-02-28T03:10:41;-0.70;99.90
33328;DHT22;19692;52.998;9.116;2023-02-28T03:22:14;-0.70;99.90
33328;DHT22;19692;52.998;9.116;2023-02-28T03:27:29;-0.80;99.90
33328;DHT22;19692;52.998;9.116;2023-02-28T03:30:09;-0.80;99.90
33328;DHT22;19692;52.998;9.116;2023-02-28T03:33:09;-0.80;99.90
33328;DHT22;19692;52.998;9.116;2023-02-28T03:36:12;-0.80;99.90
33328;DHT22;19692;52.998;9.116;2023-02-28T03:38:40;-0.70;99.90
33328;DHT22;19692;52.998;9.116;2023-02-28T03:41:14;-0.70;99.90
33328;DHT22;19692;52.998;9.116;2023-02-28T03:43:48;-0.80;99.90
33328;DHT22;19692;52.998;9.116;2023-02-28T03:46:19;-0.80;99.90
33328;DHT22;19692;52.998;9.116;2023-02-28T03:49:11;-0.80;99.90
33328;DHT22;19692;52.998;9.116;2023-02-28T03:51:41;-0.80;99.90
33328;DHT22;19692;52.998;9.116;2023-02-28T03:54:40;-0.80;99.90
33328;DHT22;19692;52.998;9.116;2023-02-28T03:57:18;-0.80;99.90
33328;DHT22;19692;52.998;9.116;2023-02-28T03:59:56;-0.80;99.90
33328;DHT22;19692;52.998;9.116;2023-02-28T04:02:25;-0.80;99.90
33328;DHT22;19692;52.998;9.116;2023-02-28T04:04:51;-0.90;99.90
33328;DHT22;19692;52.998;9.116;2023-02-28T04:07:17;-0.90;99.90
33328;DHT22;19692;52.998;9.116;2023-02-28T04:09:43;-0.90;99.90
33328;DHT22;19692;52.998;9.116;2023-02-28T04:12:09;-1.00;99.90
33328;DHT22;19692;52.998;9.116;2023-02-28T04:14:35;-1.00;99.90
33328;DHT22;19692;52.998;9.116;2023-02-28T04:17:00;-1.10;99.90
33328;DHT22;19692;52.998;9.116;2023-02-28T04:19:26;-1.20;99.90
33328;DHT22;19692;52.998;9.116;2023-02-28T04:21:53;-1.20;99.90
33328;DHT22;19692;52.998;9.116;2023-02-28T04:24:26;-1.20;99.90
33328;DHT22;19692;52.998;9.116;2023-02-28T04:26:55;-1.30;99.90
33328;DHT22;19692;52.998;9.116;2023-02-28T04:29:30;-1.40;99.90
33328;DHT22;19692;52.998;9.116;2023-02-28T04:31:59;-1.50;99.90
33328;DHT22;19692;52.998;9.116;2023-02-28T04:34:30;-1.50;99.90
33328;DHT22;19692;52.998;9.116;2023-02-28T04:36:57;-1.50;99.90
33328;DHT22;19692;52.998;9.116;2023-02-28T04:39:24;-1.60;99.90
33328;DHT22;19692;52.998;9.116;2023-02-28T04:41:50;-1.60;99.90
33328;DHT22;19692;52.998;9.116;2023-02-28T04:44:16;-1.60;99.90
33328;DHT22;19692;52.998;9.116;2023-02-28T04:46:43;-1.60;99.90
33328;DHT22;19692;52.998;9.116;2023-02-28T04:49:11;-1.60;99.90
33328;DHT22;19692;52.998;9.116;2023-02-28T04:51:37;-1.60;99.90
33328;DHT22;19692;52.998;9.116;2023-02-28T04:54:02;-1.70;99.90
33328;DHT22;19692;52.998;9.116;2023-02-28T04:56:28;-1.60;99.90
33328;DHT22;19692;52.998;9.116;2023-02-28T04:58:54;-1.60;99.90
33328;DHT22;19692;52.998;9.116;2023-02-28T05:01:28;-1.60;99.90
33328;DHT22;19692;52.998;9.116;2023-02-28T05:03:57;-1.60;99.90
33328;DHT22;19692;52.998;9.116;2023-02-28T05:06:26;-1.70;99.90
33328;DHT22;19692;52.998;9.116;2023-02-28T05:08:52;-1.80;99.90
33328;DHT22;19692;52.998;9.116;2023-02-28T05:11:22;-1.80;99.90
33328;DHT22;19692;52.998;9.116;2023-02-28T05:13:50;-1.80;99.90
33328;DHT22;19692;52.998;9.116;2023-02-28T05:16:17;-1.80;99.90
33328;DHT22;19692;52.998;9.116;2023-02-28T05:18:43;-1.90;99.90
33328;DHT22;19692;52.998;9.116;2023-02-28T05:21:22;-1.90;99.90
33328;DHT22;19692;52.998;9.116;2023-02-28T05:24:00;-2.00;99.90
33328;DHT22;19692;52.998;9.116;2023-02-28T05:26:29;-2.00;99.90
33328;DHT22;19692;52.998;9.116;2023-02-28T05:28:56;-2.10;99.90
33328;DHT22;19692;52.998;9.116;2023-02-28T05:31:22;-2.10;99.90
33328;DHT22;19692;52.998;9.116;2023-02-28T05:33:47;-2.10;99.90
33328;DHT22;19692;52.998;9.116;2023-02-28T05:36:13;-2.10;99.90
33328;DHT22;19692;52.998;9.116;2023-02-28T05:38:39;-2.10;99.90
33328;DHT22;19692;52.998;9.116;2023-02-28T05:41:09;-2.20;99.90
33328;DHT22;19692;52.998;9.116;2023-02-28T05:43:35;-2.30;99.90
33328;DHT22;19692;52.998;9.116;2023-02-28T05:46:05;-2.30;99.90
33328;DHT22;19692;52.998;9.116;2023-02-28T05:48:33;-2.40;99.90
33328;DHT22;19692;52.998;9.116;2023-02-28T05:50:59;-2.30;99.90
33328;DHT22;19692;52.998;9.116;2023-02-28T05:53:25;-2.40;99.90
33328;DHT22;19692;52.998;9.116;2023-02-28T05:55:51;-2.40;99.90
33328;DHT22;19692;52.998;9.116;2023-02-28T05:58:17;-2.40;99.90
33328;DHT22;19692;52.998;9.116;2023-02-28T06:00:44;-2.40;99.90
33328;DHT22;19692;52.998;9.116;2023-02-28T06:03:10;-2.50;99.90
33328;DHT22;19692;52.998;9.116;2023-02-28T06:05:36;-2.50;99.90
33328;DHT22;19692;52.998;9.116;2023-02-28T06:08:03;-2.50;99.90
33328;DHT22;19692;52.998;9.116;2023-02-28T06:10:32;-2.50;99.90
33328;DHT22;19692;52.998;9.116;2023-02-28T06:13:02;-2.50;99.90
33328;DHT22;19692;52.998;9.116;2023-02-28T06:15:28;-2.50;99.90
33328;DHT22;19692;52.998;9.116;2023-02-28T06:17:54;-2.50;99.90
33328;DHT22;19692;52.998;9.116;2023-02-28T06:20:22;-2.50;99.90
33328;DHT22;19692;52.998;9.116;2023-02-28T06:22:48;-2.50;99.90
33328;DHT22;19692;52.998;9.116;2023-02-28T06:25:15;-2.40;99.90
33328;DHT22;19692;52.998;9.116;2023-02-28T06:27:41;-2.50;99.90
33328;DHT22;19692;52.998;9.116;2023-02-28T06:30:07;-2.50;99.90
33328;DHT22;19692;52.998;9.116;2023-02-28T06:32:32;-2.50;99.90
33328;DHT22;19692;52.998;9.116;2023-02-28T06:34:58;-2.50;99.90
33328;DHT22;19692;52.998;9.116;2023-02-28T06:37:24;-2.50;99.90
33328;DHT22;19692;52.998;9.116;2023-02-28T06:39:53;-2.50;99.90
33328;DHT22;19692;52.998;9.116;2023-02-28T06:42:21;-2.50;99.90
33328;DHT22;19692;52.998;9.116;2023-02-28T06:44:50;-2.50;99.90
33328;DHT22;19692;52.998;9.116;2023-02-28T06:47:16;-2.50;99.90
33328;DHT22;19692;52.998;9.116;2023-02-28T06:49:42;-2.50;99.90
33328;DHT22;19692;52.998;9.116;2023-02-28T06:52:07;-2.40;99.90
33328;DHT22;19692;52.998;9.116;2023-02-28T06:54:36;-2.40;99.90
33328;DHT22;19692;52.998;9.116;2023-02-28T06:57:02;-2.40;99.90
33328;DHT22;19692;52.998;9.116;2023-02-28T06:59:27;-2.30;99.90
33328;DHT22;19692;52.998;9.116;2023-02-28T07:01:53;-2.20;99.90
33328;DHT22;19692;52.998;9.116;2023-02-28T07:04:20;-2.20;99.90
33328;DHT22;19692;52.998;9.116;2023-02-28T07:06:46;-2.20;99.90
33328;DHT22;19692;52.998;9.116;2023-02-28T07:09:12;-2.10;99.90
33328;DHT22;19692;52.998;9.116;2023-02-28T07:11:39;-2.10;99.90
33328;DHT22;19692;52.998;9.116;2023-02-28T07:14:06;-2.00;99.90
33328;DHT22;19692;52.998;9.116;2023-02-28T07:16:32;-2.00;99.90
33328;DHT22;19692;52.998;9.116;2023-02-28T07:18:58;-1.90;99.90
33328;DHT22;19692;52.998;9.116;2023-02-28T07:21:24;-1.90;99.90
33328;DHT22;19692;52.998;9.116;2023-02-28T07:23:50;-1.80;99.90
33328;DHT22;19692;52.998;9.116;2023-02-28T07:26:16;-1.70;99.90
33328;DHT22;19692;52.998;9.116;2023-02-28T07:28:44;-1.60;99.90
33328;DHT22;19692;52.998;9.116;2023-02-28T07:31:11;-1.50;99.90
33328;DHT22;19692;52.998;9.116;2023-02-28T07:33:39;-1.40;99.90
33328;DHT22;19692;52.998;9.116;2023-02-28T07:36:06;-1.30;99.90
33328;DHT22;19692;52.998;9.116;2023-02-28T07:38:41;-1.20;99.90
33328;DHT22;19692;52.998;9.116;2023-02-28T07:41:07;-1.10;99.90
33328;DHT22;19692;52.998;9.116;2023-02-28T07:43:33;-1.00;99.90
33328;DHT22;19692;52.998;9.116;2023-02-28T07:46:03;-0.90;99.90
33328;DHT22;19692;52.998;9.116;2023-02-28T07:48:31;-0.80;99.90
33328;DHT22;19692;52.998;9.116;2023-02-28T07:50:57;-0.60;99.90
33328;DHT22;19692;52.998;9.116;2023-02-28T07:53:23;-0.60;99.90
33328;DHT22;19692;52.998;9.116;2023-02-28T07:55:49;-0.40;99.90
33328;DHT22;19692;52.998;9.116;2023-02-28T07:58:14;-0.30;99.90
33328;DHT22;19692;52.998;9.116;2023-02-28T08:00:40;-0.30;99.90
33328;DHT22;19692;52.998;9.116;2023-02-28T08:03:06;-0.20;99.90
33328;DHT22;19692;52.998;9.116;2023-02-28T08:05:31;-0.10;99.90
33328;DHT22;19692;52.998;9.116;2023-02-28T08:07:57;0.00;99.90
33328;DHT22;19692;52.998;9.116;2023-02-28T08:10:23;0.10;99.90
33328;DHT22;19692;52.998;9.116;2023-02-28T08:12:49;0.20;99.90
33328;DHT22;19692;52.998;9.116;2023-02-28T08:15:14;0.30;99.90
33328;DHT22;19692;52.998;9.116;2023-02-28T08:17:40;0.40;99.90
33328;DHT22;19692;52.998;9.116;2023-02-28T08:20:06;0.50;99.90
33328;DHT22;19692;52.998;9.116;2023-02-28T08:22:34;0.80;99.90
33328;DHT22;19692;52.998;9.116;2023-02-28T08:24:59;1.00;99.90
33328;DHT22;19692;52.998;9.116;2023-02-28T08:27:25;1.20;99.90
33328;DHT22;19692;52.998;9.116;2023-02-28T08:29:51;1.40;99.90
33328;DHT22;19692;52.998;9.116;2023-02-28T08:32:16;1.60;99.90
33328;DHT22;19692;52.998;9.116;2023-02-28T08:34:42;1.70;99.90
33328;DHT22;19692;52.998;9.116;2023-02-28T08:37:08;1.80;99.90
33328;DHT22;19692;52.998;9.116;2023-02-28T08:39:35;2.00;99.90
33328;DHT22;19692;52.998;9.116;2023-02-28T08:42:02;2.10;99.90
33328;DHT22;19692;52.998;9.116;2023-02-28T08:44:28;2.30;99.90
33328;DHT22;19692;52.998;9.116;2023-02-28T08:46:54;2.50;99.90
33328;DHT22;19692;52.998;9.116;2023-02-28T08:49:19;2.70;99.90
33328;DHT22;19692;52.998;9.116;2023-02-28T08:51:45;3.00;99.90
33328;DHT22;19692;52.998;9.116;2023-02-28T08:54:11;3.10;99.90
33328;DHT22;19692;52.998;9.116;2023-02-28T08:56:38;3.30;99.90
33328;DHT22;19692;52.998;9.116;2023-02-28T08:59:04;3.40;99.90
33328;DHT22;19692;52.998;9.116;2023-02-28T09:01:30;3.50;99.90
33328;DHT22;19692;52.998;9.116;2023-02-28T09:03:57;3.40;99.90
33328;DHT22;19692;52.998;9.116;2023-02-28T09:06:26;3.50;99.90
33328;DHT22;19692;52.998;9.116;2023-02-28T09:08:52;3.70;99.90
33328;DHT22;19692;52.998;9.116;2023-02-28T09:11:18;3.90;99.90
33328;DHT22;19692;52.998;9.116;2023-02-28T09:13:45;4.10;99.90
33328;DHT22;19692;52.998;9.116;2023-02-28T09:16:14;4.40;99.90
33328;DHT22;19692;52.998;9.116;2023-02-28T09:18:41;4.70;99.90
33328;DHT22;19692;52.998;9.116;2023-02-28T09:21:12;4.90;99.90
33328;DHT22;19692;52.998;9.116;2023-02-28T09:23:43;5.10;99.90
33328;DHT22;19692;52.998;9.116;2023-02-28T09:26:21;5.30;99.90
33328;DHT22;19692;52.998;9.116;2023-02-28T09:28:52;5.30;99.90
33328;DHT22;19692;52.998;9.116;2023-02-28T09:31:24;5.40;99.90
33328;DHT22;19692;52.998;9.116;2023-02-28T09:33:53;5.60;99.90
33328;DHT22;19692;52.998;9.116;2023-02-28T09:36:22;5.60;99.90
33328;DHT22;19692;52.998;9.116;2023-02-28T09:38:48;6.00;99.90
33328;DHT22;19692;52.998;9.116;2023-02-28T09:41:26;6.20;99.90
33328;DHT22;19692;52.998;9.116;2023-02-28T09:43:59;6.20;99.90
33328;DHT22;19692;52.998;9.116;2023-02-28T09:46:38;6.50;99.90
33328;DHT22;19692;52.998;9.116;2023-02-28T09:49:22;6.70;99.90
33328;DHT22;19692;52.998;9.116;2023-02-28T09:52:02;6.90;99.90
33328;DHT22;19692;52.998;9.116;2023-02-28T09:54:31;7.20;99.90
33328;DHT22;19692;52.998;9.116;2023-02-28T10:06:14;7.90;99.90
33328;DHT22;19692;52.998;9.116;2023-02-28T10:09:44;7.90;99.90
33328;DHT22;19692;52.998;9.116;2023-02-28T10:11:59;8.10;99.90
33328;DHT22;19692;52.998;9.116;2023-02-28T10:14:29;8.10;99.90
33328;DHT22;19692;52.998;9.116;2023-02-28T10:17:09;8.30;99.90
33328;DHT22;19692;52.998;9.116;2023-02-28T10:20:02;8.40;99.90
33328;DHT22;19692;52.998;9.116;2023-02-28T10:22:38;8.20;99.90
33328;DHT22;19692;52.998;9.116;2023-02-28T10:25:20;8.70;99.90
33328;DHT22;19692;52.998;9.116;2023-02-28T10:27:49;9.10;99.90
33328;DHT22;19692;52.998;9.116;2023-02-28T10:30:18;8.80;99.90
33328;DHT22;19692;52.998;9.116;2023-02-28T10:32:50;8.40;99.90
33328;DHT22;19692;52.998;9.116;2023-02-28T10:35:21;8.80;99.90
33328;DHT22;19692;52.998;9.116;2023-02-28T10:37:58;9.20;99.90
33328;DHT22;19692;52.998;9.116;2023-02-28T10:40:27;9.50;99.90
33328;DHT22;19692;52.998;9.116;2023-02-28T10:43:05;9.70;99.20
33328;DHT22;19692;52.998;9.116;2023-02-28T10:51:18;9.90;97.50
33328;DHT22;19692;52.998;9.116;2023-02-28T10:53:54;10.00;96.80
33328;DHT22;19692;52.998;9.116;2023-02-28T10:56:22;10.10;95.70
33328;DHT22;19692;52.998;9.116;2023-02-28T11:01:39;10.40;96.10
33328;DHT22;19692;52.998;9.116;2023-02-28T11:07:21;10.20;94.20
33328;DHT22;19692;52.998;9.116;2023-02-28T11:09:51;10.20;94.60
33328;DHT22;19692;52.998;9.116;2023-02-28T11:12:32;10.30;94.40
33328;DHT22;19692;52.998;9.116;2023-02-28T11:17:59;10.60;91.90
33328;DHT22;19692;52.998;9.116;2023-02-28T11:20:29;11.10;92.10
33328;DHT22;19692;52.998;9.116;2023-02-28T11:22:58;11.10;85.40
33328;DHT22;19692;52.998;9.116;2023-02-28T11:25:32;11.30;86.10
33328;DHT22;19692;52.998;9.116;2023-02-28T11:28:30;11.20;86.10
33328;DHT22;19692;52.998;9.116;2023-02-28T11:33:52;11.90;81.50
33328;DHT22;19692;52.998;9.116;2023-02-28T11:36:24;11.20;84.20
33328;DHT22;19692;52.998;9.116;2023-02-28T11:39:03;11.50;82.20
33328;DHT22;19692;52.998;9.116;2023-02-28T11:41:51;11.70;79.90
33328;DHT22;19692;52.998;9.116;2023-02-28T11:44:29;12.10;79.70
33328;DHT22;19692;52.998;9.116;2023-02-28T11:50:04;11.90;77.60
33328;DHT22;19692;52.998;9.116;2023-02-28T11:52:51;11.70;76.00
33328;DHT22;19692;52.998;9.116;2023-02-28T11:55:35;11.70;79.30
33328;DHT22;19692;52.998;9.116;2023-02-28T11:58:19;11.80;82.70
33328;DHT22;19692;52.998;9.116;2023-02-28T12:01:13;11.90;79.20
33328;DHT22;19692;52.998;9.116;2023-02-28T12:06:56;11.90;82.50
33328;DHT22;19692;52.998;9.116;2023-02-28T12:12:38;12.60;77.60
33328;DHT22;19692;52.998;9.116;2023-02-28T12:20:49;12.30;72.80
33328;DHT22;19692;52.998;9.116;2023-02-28T12:23:43;12.50;73.70
33328;DHT22;19692;52.998;9.116;2023-02-28T12:26:39;12.20;74.00
33328;DHT22;19692;52.998;9.116;2023-02-28T12:32:04;12.60;71.90
33328;DHT22;19692;52.998;9.116;2023-02-28T12:34:36;12.80;72.60
33328;DHT22;19692;52.998;9.116;2023-02-28T12:37:09;13.00;72.50
33328;DHT22;19692;52.998;9.116;2023-02-28T12:39:42;12.90;69.20
33328;DHT22;19692;52.998;9.116;2023-02-28T12:42:21;12.20;66.90
33328;DHT22;19692;52.998;9.116;2023-02-28T12:44:56;12.00;72.00
33328;DHT22;19692;52.998;9.116;2023-02-28T12:47:24;12.30;72.40
33328;DHT22;19692;52.998;9.116;2023-02-28T12:49:58;12.60;71.60
33328;DHT22;19692;52.998;9.116;2023-02-28T12:52:41;12.90;71.10
33328;DHT22;19692;52.998;9.116;2023-02-28T12:58:37;12.50;71.20
33328;DHT22;19692;52.998;9.116;2023-02-28T13:04:42;12.70;69.20
33328;DHT22;19692;52.998;9.116;2023-02-28T13:09:57;13.00;65.50
33328;DHT22;19692;52.998;9.116;2023-02-28T13:12:25;13.00;65.20
33328;DHT22;19692;52.998;9.116;2023-02-28T13:15:08;13.00;66.60
33328;DHT22;19692;52.998;9.116;2023-02-28T13:17:49;13.40;64.80
33328;DHT22;19692;52.998;9.116;2023-02-28T13:22:49;13.20;65.80
33328;DHT22;19692;52.998;9.116;2023-02-28T13:28:13;12.80;68.20
33328;DHT22;19692;52.998;9.116;2023-02-28T13:31:14;13.00;67.30
33328;DHT22;19692;52.998;9.116;2023-02-28T13:36:31;13.00;66.00
33328;DHT22;19692;52.998;9.116;2023-02-28T13:38:59;13.10;67.10
33328;DHT22;19692;52.998;9.116;2023-02-28T13:44:21;13.60;65.40
33328;DHT22;19692;52.998;9.116;2023-02-28T13:51:50;13.20;64.30
33328;DHT22;19692;52.998;9.116;2023-02-28T13:57:12;13.30;62.60
33328;DHT22;19692;52.998;9.116;2023-02-28T14:00:08;13.70;63.00
33328;DHT22;19692;52.998;9.116;2023-02-28T14:05:18;14.10;59.40
33328;DHT22;19692;52.998;9.116;2023-02-28T14:07:53;13.80;60.50
33328;DHT22;19692;52.998;9.116;2023-02-28T14:10:29;13.80;62.10
33328;DHT22;19692;52.998;9.116;2023-02-28T14:15:39;12.50;67.40
33328;DHT22;19692;52.998;9.116;2023-02-28T14:18:34;12.70;65.90
33328;DHT22;19692;52.998;9.116;2023-02-28T14:32:54;13.30;61.50
33328;DHT22;19692;52.998;9.116;2023-02-28T14:38:23;13.60;60.80
33328;DHT22;19692;52.998;9.116;2023-02-28T14:40:53;13.50;61.50
33328;DHT22;19692;52.998;9.116;2023-02-28T14:43:26;13.50;60.80
33328;DHT22;19692;52.998;9.116;2023-02-28T14:45:56;13.60;61.40
33328;DHT22;19692;52.998;9.116;2023-02-28T14:48:24;13.80;61.00
33328;DHT22;19692;52.998;9.116;2023-02-28T14:50:55;13.40;60.00
33328;DHT22;19692;52.998;9.116;2023-02-28T14:53:26;12.80;61.80
33328;DHT22;19692;52.998;9.116;2023-02-28T14:55:56;12.60;60.60
33328;DHT22;19692;52.998;9.116;2023-02-28T14:58:28;12.50;60.80
33328;DHT22;19692;52.998;9.116;2023-02-28T15:00:57;12.50;62.50
33328;DHT22;19692;52.998;9.116;2023-02-28T15:03:36;12.50;62.10
33328;DHT22;19692;52.998;9.116;2023-02-28T15:06:05;12.60;60.20
33328;DHT22;19692;52.998;9.116;2023-02-28T15:08:37;12.50;61.20
33328;DHT22;19692;52.998;9.116;2023-02-28T15:11:14;12.70;62.10
33328;DHT22;19692;52.998;9.116;2023-02-28T15:13:46;12.70;61.30
33328;DHT22;19692;52.998;9.116;2023-02-28T15:16:19;12.70;62.00
33328;DHT22;19692;52.998;9.116;2023-02-28T15:18:50;12.70;61.90
33328;DHT22;19692;52.998;9.116;2023-02-28T15:21:21;12.50;63.90
33328;DHT22;19692;52.998;9.116;2023-02-28T15:24:03;12.10;64.20
33328;DHT22;19692;52.998;9.116;2023-02-28T15:26:36;11.90;65.30
33328;DHT22;19692;52.998;9.116;2023-02-28T15:29:07;11.80;67.20
33328;DHT22;19692;52.998;9.116;2023-02-28T15:31:44;12.00;67.50
33328;DHT22;19692;52.998;9.116;2023-02-28T15:34:43;12.20;66.50
33328;DHT22;19692;52.998;9.116;2023-02-28T15:37:28;12.20;65.40
33328;DHT22;19692;52.998;9.116;2023-02-28T15:45:49;12.00;67.10
33328;DHT22;19692;52.998;9.116;2023-02-28T15:48:20;11.80;67.40
33328;DHT22;19692;52.998;9.116;2023-02-28T15:50:53;11.80;68.00
33328;DHT22;19692;52.998;9.116;2023-02-28T15:53:30;11.40;66.60
33328;DHT22;19692;52.998;9.116;2023-02-28T15:59:03;11.10;70.50
33328;DHT22;19692;52.998;9.116;2023-02-28T16:01:33;10.70;70.70
33328;DHT22;19692;52.998;9.116;2023-02-28T16:04:11;10.20;70.10
33328;DHT22;19692;52.998;9.116;2023-02-28T16:06:44;9.60;76.30
33328;DHT22;19692;52.998;9.116;2023-02-28T16:09:15;9.30;78.60
33328;DHT22;19692;52.998;9.116;2023-02-28T16:11:54;9.10;80.10
33328;DHT22;19692;52.998;9.116;2023-02-28T16:14:27;9.00;79.90
33328;DHT22;19692;52.998;9.116;2023-02-28T16:16:57;8.90;80.70
33328;DHT22;19692;52.998;9.116;2023-02-28T16:19:29;8.80;83.10
33328;DHT22;19692;52.998;9.116;2023-02-28T16:21:54;8.60;82.80
33328;DHT22;19692;52.998;9.116;2023-02-28T16:24:20;8.50;83.10
33328;DHT22;19692;52.998;9.116;2023-02-28T16:26:48;8.40;83.70
33328;DHT22;19692;52.998;9.116;2023-02-28T16:29:35;8.40;85.40
33328;DHT22;19692;52.998;9.116;2023-02-28T16:32:04;8.10;85.70
33328;DHT22;19692;52.998;9.116;2023-02-28T16:34:30;8.00;86.70
33328;DHT22;19692;52.998;9.116;2023-02-28T16:36:57;7.80;86.80
33328;DHT22;19692;52.998;9.116;2023-02-28T16:39:23;7.50;89.20
33328;DHT22;19692;52.998;9.116;2023-02-28T16:41:50;7.40;92.00
33328;DHT22;19692;52.998;9.116;2023-02-28T16:44:28;7.10;95.40
33328;DHT22;19692;52.998;9.116;2023-02-28T16:46:55;6.70;97.70
33328;DHT22;19692;52.998;9.116;2023-02-28T16:49:21;6.60;99.40
33328;DHT22;19692;52.998;9.116;2023-02-28T16:51:49;6.60;99.90
33328;DHT22;19692;52.998;9.116;2023-02-28T16:54:15;6.50;99.90
33328;DHT22;19692;52.998;9.116;2023-02-28T16:56:44;6.30;99.90
33328;DHT22;19692;52.998;9.116;2023-02-28T16:59:11;6.20;99.90
33328;DHT22;19692;52.998;9.116;2023-02-28T17:01:38;6.10;99.90
33328;DHT22;19692;52.998;9.116;2023-02-28T17:04:04;6.20;99.90
33328;DHT22;19692;52.998;9.116;2023-02-28T17:06:30;6.00;99.90
33328;DHT22;19692;52.998;9.116;2023-02-28T17:08:57;5.80;99.90
33328;DHT22;19692;52.998;9.116;2023-02-28T17:11:24;5.60;99.90
33328;DHT22;19692;52.998;9.116;2023-02-28T17:13:50;5.50;99.90
33328;DHT22;19692;52.998;9.116;2023-02-28T17:16:30;5.40;99.90
33328;DHT22;19692;52.998;9.116;2023-02-28T17:19:03;5.40;99.90
33328;DHT22;19692;52.998;9.116;2023-02-28T17:21:30;5.30;99.90
33328;DHT22;19692;52.998;9.116;2023-02-28T17:23:56;5.10;99.90
33328;DHT22;19692;52.998;9.116;2023-02-28T17:26:23;4.90;99.90
33328;DHT22;19692;52.998;9.116;2023-02-28T17:28:54;4.70;99.90
33328;DHT22;19692;52.998;9.116;2023-02-28T17:31:22;4.70;99.90
33328;DHT22;19692;52.998;9.116;2023-02-28T17:33:48;4.50;99.90
33328;DHT22;19692;52.998;9.116;2023-02-28T17:36:16;4.10;99.90
33328;DHT22;19692;52.998;9.116;2023-02-28T17:38:47;3.80;99.90
33328;DHT22;19692;52.998;9.116;2023-02-28T17:41:13;3.50;99.90
33328;DHT22;19692;52.998;9.116;2023-02-28T17:43:39;3.30;99.90
33328;DHT22;19692;52.998;9.116;2023-02-28T17:46:09;3.30;99.90
33328;DHT22;19692;52.998;9.116;2023-02-28T17:48:40;3.20;99.90
33328;DHT22;19692;52.998;9.116;2023-02-28T17:51:05;3.10;99.90
33328;DHT22;19692;52.998;9.116;2023-02-28T17:53:31;3.10;99.90
33328;DHT22;19692;52.998;9.116;2023-02-28T17:55:57;3.00;99.90
33328;DHT22;19692;52.998;9.116;2023-02-28T17:58:22;2.90;99.90
33328;DHT22;19692;52.998;9.116;2023-02-28T18:00:48;2.70;99.90
33328;DHT22;19692;52.998;9.116;2023-02-28T18:03:19;2.60;99.90
33328;DHT22;19692;52.998;9.116;2023-02-28T18:05:46;2.50;99.90